sensor_id;sensor_type;location;lat;lon;timestamp;temperature;humidity
44117;DHT22;29781;49.480;8.512;2024-01-30T00:00:42;5.20;99.90
44117;DHT22;29781;49.480;8.512;2024-01-30T00:03:07;5.20;99.90
44117;DHT22;29781;49.480;8.512;2024-01-30T00:05:33;5.30;99.90
44117;DHT22;29781;49.480;8.512;2024-01-30T00:07:58;5.30;99.90
44117;DHT22;29781;49.480;8.512;2024-01-30T00:10:24;5.20;99.90
44117;DHT22;29781;49.480;8.512;2024-01-30T00:12:49;5.20;99.90
44117;DHT22;29781;49.480;8.512;2024-01-30T00:15:15;5.20;99.90
44117;DHT22;29781;49.480;8.512;2024-01-30T00:17:40;5.10;99.90
44117;DHT22;29781;49.480;8.512;2024-01-30T00:20:06;5.10;99.90
44117;DHT22;29781;49.480;8.512;2024-01-30T00:22:34;5.10;99.90
44117;DHT22;29781;49.480;8.512;2024-01-30T00:25:00;5.10;99.90
44117;DHT22;29781;49.480;8.512;2024-01-30T00:27:26;5.00;99.90
44117;DHT22;29781;49.480;8.512;2024-01-30T00:29:53;4.90;99.90
44117;DHT22;29781;49.480;8.512;2024-01-30T00:32:18;4.90;99.90
44117;DHT22;29781;49.480;8.512;2024-01-30T00:34:44;4.90;99.90
44117;DHT22;29781;49.480;8.512;2024-01-30T00:37:10;4.90;99.90
44117;DHT22;29781;49.480;8.512;2024-01-30T00:39:35;4.90;99.90
44117;DHT22;29781;49.480;8.512;2024-01-30T00:42:01;5.00;99.90
44117;DHT22;29781;49.480;8.512;2024-01-30T00:44:27;5.00;99.90
44117;DHT22;29781;49.480;8.512;2024-01-30T00:46:52;4.90;99.90
44117;DHT22;29781;49.480;8.512;2024-01-30T00:49:18;4.90;99.90
44117;DHT22;29781;49.480;8.512;2024-01-30T00:51:43;4.80;99.90
44117;DHT22;29781;49.480;8.512;2024-01-30T00:54:09;4.80;99.90
44117;DHT22;29781;49.480;8.512;2024-01-30T00:56:34;4.80;99.90
44117;DHT22;29781;49.480;8.512;2024-01-30T00:59:00;4.80;99.90
44117;DHT22;29781;49.480;8.512;2024-01-30T01:01:25;4.70;99.90
44117;DHT22;29781;49.480;8.512;2024-01-30T01:03:51;4.70;99.90
44117;DHT22;29781;49.480;8.512;2024-01-30T01:06:16;4.70;99.90
44117;DHT22;29781;49.480;8.512;2024-01-30T01:08:42;4.70;99.90
44117;DHT22;29781;49.480;8.512;2024-01-30T01:11:07;4.60;99.90
44117;DHT22;29781;49.480;8.512;2024-01-30T01:13:33;4.60;99.90
44117;DHT22;29781;49.480;8.512;2024-01-30T01:15:58;4.60;99.90
44117;DHT22;29781;49.480;8.512;2024-01-30T01:18:24;4.60;99.90
44117;DHT22;29781;49.480;8.512;2024-01-30T01:20:49;4.60;99.90
44117;DHT22;29781;49.480;8.512;2024-01-30T01:23:15;4.60;99.90
44117;DHT22;29781;49.480;8.512;2024-01-30T01:25:40;4.60;99.90
44117;DHT22;29781;49.480;8.512;2024-01-30T01:28:06;4.60;99.90
44117;DHT22;29781;49.480;8.512;2024-01-30T01:30:31;4.70;99.90
44117;DHT22;29781;49.480;8.512;2024-01-30T01:32:57;4.70;99.90
44117;DHT22;29781;49.480;8.512;2024-01-30T01:35:25;4.60;99.90
44117;DHT22;29781;49.480;8.512;2024-01-30T01:37:52;4.60;99.90
44117;DHT22;29781;49.480;8.512;2024-01-30T01:40:27;4.60;99.90
44117;DHT22;29781;49.480;8.512;2024-01-30T01:42:53;4.60;99.90
44117;DHT22;29781;49.480;8.512;2024-01-30T01:45:21;4.60;99.90
44117;DHT22;29781;49.480;8.512;2024-01-30T01:47:55;4.70;99.90
44117;DHT22;29781;49.480;8.512;2024-01-30T01:50:22;4.60;99.90
44117;DHT22;29781;49.480;8.512;2024-01-30T01:52:48;4.60;99.90
44117;DHT22;29781;49.480;8.512;2024-01-30T01:55:15;4.60;99.90
44117;DHT22;29781;49.480;8.512;2024-01-30T01:57:43;4.60;99.90
44117;DHT22;29781;49.480;8.512;2024-01-30T02:00:10;4.60;99.90
44117;DHT22;29781;49.480;8.512;2024-01-30T02:02:36;4.60;99.90
44117;DHT22;29781;49.480;8.512;2024-01-30T02:05:02;4.70;99.90
44117;DHT22;29781;49.480;8.512;2024-01-30T02:07:29;4.70;99.90
44117;DHT22;29781;49.480;8.512;2024-01-30T02:09:55;4.70;99.90
44117;DHT22;29781;49.480;8.512;2024-01-30T02:12:21;4.70;99.90
44117;DHT22;29781;49.480;8.512;2024-01-30T02:14:47;4.70;99.90
44117;DHT22;29781;49.480;8.512;2024-01-30T02:17:13;4.70;99.90
44117;DHT22;29781;49.480;8.512;2024-01-30T02:19:39;4.70;99.90
44117;DHT22;29781;49.480;8.512;2024-01-30T02:22:05;4.70;99.90
44117;DHT22;29781;49.480;8.512;2024-01-30T02:24:31;4.70;99.90
44117;DHT22;29781;49.480;8.512;2024-01-30T02:26:57;4.70;99.90
44117;DHT22;29781;49.480;8.512;2024-01-30T02:29:23;4.70;99.90
44117;DHT22;29781;49.480;8.512;2024-01-30T02:31:48;4.70;99.90
44117;DHT22;29781;49.480;8.512;2024-01-30T02:34:14;4.80;99.90
44117;DHT22;29781;49.480;8.512;2024-01-30T02:36:43;4.80;99.90
44117;DHT22;29781;49.480;8.512;2024-01-30T02:39:09;4.80;99.90
44117;DHT22;29781;49.480;8.512;2024-01-30T02:41:35;4.80;99.90
44117;DHT22;29781;49.480;8.512;2024-01-30T02:44:01;4.80;99.90
44117;DHT22;29781;49.480;8.512;2024-01-30T02:46:26;4.80;99.90
44117;DHT22;29781;49.480;8.512;2024-01-30T02:48:52;4.80;99.90
44117;DHT22;29781;49.480;8.512;2024-01-30T02:51:17;4.80;99.90
44117;DHT22;29781;49.480;8.512;2024-01-30T02:53:43;4.70;99.90
44117;DHT22;29781;49.480;8.512;2024-01-30T02:56:08;4.60;99.90
44117;DHT22;29781;49.480;8.512;2024-01-30T02:58:36;4.60;99.90
44117;DHT22;29781;49.480;8.512;2024-01-30T03:01:02;4.60;99.90
44117;DHT22;29781;49.480;8.512;2024-01-30T03:03:27;4.60;99.90
44117;DHT22;29781;49.480;8.512;2024-01-30T03:05:53;4.60;99.90
44117;DHT22;29781;49.480;8.512;2024-01-30T03:08:19;4.50;99.90
44117;DHT22;29781;49.480;8.512;2024-01-30T03:10:45;4.60;99.90
44117;DHT22;29781;49.480;8.512;2024-01-30T03:13:10;4.60;99.90
44117;DHT22;29781;49.480;8.512;2024-01-30T03:15:36;4.50;99.90
44117;DHT22;29781;49.480;8.512;2024-01-30T03:18:02;4.50;99.90
44117;DHT22;29781;49.480;8.512;2024-01-30T03:20:29;4.50;99.90
44117;DHT22;29781;49.480;8.512;2024-01-30T03:22:55;4.60;99.90
44117;DHT22;29781;49.480;8.512;2024-01-30T03:25:21;4.50;99.90
44117;DHT22;29781;49.480;8.512;2024-01-30T03:27:47;4.60;99.90
44117;DHT22;29781;49.480;8.512;2024-01-30T03:30:12;4.60;99.90
44117;DHT22;29781;49.480;8.512;2024-01-30T03:32:38;4.50;99.90
44117;DHT22;29781;49.480;8.512;2024-01-30T03:35:03;4.50;99.90
44117;DHT22;29781;49.480;8.512;2024-01-30T03:37:29;4.50;99.90
44117;DHT22;29781;49.480;8.512;2024-01-30T03:39:55;4.50;99.90
44117;DHT22;29781;49.480;8.512;2024-01-30T03:42:20;4.50;99.90
44117;DHT22;29781;49.480;8.512;2024-01-30T03:44:47;4.40;99.90
44117;DHT22;29781;49.480;8.512;2024-01-30T03:47:13;4.40;99.90
44117;DHT22;29781;49.480;8.512;2024-01-30T03:49:38;4.40;99.90
44117;DHT22;29781;49.480;8.512;2024-01-30T03:52:04;4.40;99.90
44117;DHT22;29781;49.480;8.512;2024-01-30T03:54:29;4.40;99.90
44117;DHT22;29781;49.480;8.512;2024-01-30T03:56:55;4.40;99.90
44117;DHT22;29781;49.480;8.512;2024-01-30T03:59:20;4.50;99.90
44117;DHT22;29781;49.480;8.512;2024-01-30T04:01:50;4.40;99.90
44117;DHT22;29781;49.480;8.512;2024-01-30T04:04:17;4.40;99.90
44117;DHT22;29781;49.480;8.512;2024-01-30T04:06:43;4.50;99.90
44117;DHT22;29781;49.480;8.512;2024-01-30T04:09:09;4.50;99.90
44117;DHT22;29781;49.480;8.512;2024-01-30T04:11:34;4.50;99.90
44117;DHT22;29781;49.480;8.512;2024-01-30T04:14:00;4.50;99.90
44117;DHT22;29781;49.480;8.512;2024-01-30T04:16:25;4.50;99.90
44117;DHT22;29781;49.480;8.512;2024-01-30T04:18:52;4.50;99.90
44117;DHT22;29781;49.480;8.512;2024-01-30T04:21:17;4.50;99.90
44117;DHT22;29781;49.480;8.512;2024-01-30T04:23:43;4.40;99.90
44117;DHT22;29781;49.480;8.512;2024-01-30T04:26:08;4.40;99.90
44117;DHT22;29781;49.480;8.512;2024-01-30T04:28:34;4.30;99.90
44117;DHT22;29781;49.480;8.512;2024-01-30T04:30:59;4.20;99.90
44117;DHT22;29781;49.480;8.512;2024-01-30T04:33:25;4.20;99.90
44117;DHT22;29781;49.480;8.512;2024-01-30T04:35:50;4.30;99.90
44117;DHT22;29781;49.480;8.512;2024-01-30T04:38:17;4.30;99.90
44117;DHT22;29781;49.480;8.512;2024-01-30T04:40:42;4.30;99.90
44117;DHT22;29781;49.480;8.512;2024-01-30T04:43:08;4.30;99.90
44117;DHT22;29781;49.480;8.512;2024-01-30T04:45:34;4.30;99.90
44117;DHT22;29781;49.480;8.512;2024-01-30T04:47:59;4.30;99.90
44117;DHT22;29781;49.480;8.512;2024-01-30T04:50:24;4.30;99.90
44117;DHT22;29781;49.480;8.512;2024-01-30T04:52:52;4.40;99.90
44117;DHT22;29781;49.480;8.512;2024-01-30T04:55:17;4.50;99.90
44117;DHT22;29781;49.480;8.512;2024-01-30T04:57:43;4.50;99.90
44117;DHT22;29781;49.480;8.512;2024-01-30T05:00:09;4.50;99.90
44117;DHT22;29781;49.480;8.512;2024-01-30T05:02:34;4.60;99.90
44117;DHT22;29781;49.480;8.512;2024-01-30T05:05:00;4.60;99.90
44117;DHT22;29781;49.480;8.512;2024-01-30T05:07:25;4.60;99.90
44117;DHT22;29781;49.480;8.512;2024-01-30T05:09:51;4.60;99.90
44117;DHT22;29781;49.480;8.512;2024-01-30T05:12:17;4.60;99.90
44117;DHT22;29781;49.480;8.512;2024-01-30T05:14:42;4.60;99.90
44117;DHT22;29781;49.480;8.512;2024-01-30T05:17:08;4.60;99.90
44117;DHT22;29781;49.480;8.512;2024-01-30T05:19:35;4.50;99.90
44117;DHT22;29781;49.480;8.512;2024-01-30T05:22:01;4.50;99.90
44117;DHT22;29781;49.480;8.512;2024-01-30T05:24:26;4.60;99.90
44117;DHT22;29781;49.480;8.512;2024-01-30T05:26:52;4.50;99.90
44117;DHT22;29781;49.480;8.512;2024-01-30T05:29:17;4.60;99.90
44117;DHT22;29781;49.480;8.512;2024-01-30T05:31:43;4.60;99.90
44117;DHT22;29781;49.480;8.512;2024-01-30T05:34:08;4.60;99.90
44117;DHT22;29781;49.480;8.512;2024-01-30T05:36:34;4.60;99.90
44117;DHT22;29781;49.480;8.512;2024-01-30T05:39:00;4.60;99.90
44117;DHT22;29781;49.480;8.512;2024-01-30T05:41:25;4.60;99.90
44117;DHT22;29781;49.480;8.512;2024-01-30T05:43:51;4.60;99.90
44117;DHT22;29781;49.480;8.512;2024-01-30T05:46:16;4.50;99.90
44117;DHT22;29781;49.480;8.512;2024-01-30T05:48:42;4.50;99.90
44117;DHT22;29781;49.480;8.512;2024-01-30T05:51:08;4.50;99.90
44117;DHT22;29781;49.480;8.512;2024-01-30T05:53:34;4.50;99.90
44117;DHT22;29781;49.480;8.512;2024-01-30T05:56:02;4.40;99.90
44117;DHT22;29781;49.480;8.512;2024-01-30T05:58:27;4.40;99.90
44117;DHT22;29781;49.480;8.512;2024-01-30T06:00:53;4.50;99.90
44117;DHT22;29781;49.480;8.512;2024-01-30T06:03:19;4.50;99.90
44117;DHT22;29781;49.480;8.512;2024-01-30T06:05:44;4.50;99.90
44117;DHT22;29781;49.480;8.512;2024-01-30T06:08:10;4.40;99.90
44117;DHT22;29781;49.480;8.512;2024-01-30T06:10:35;4.40;99.90
44117;DHT22;29781;49.480;8.512;2024-01-30T06:13:01;4.40;99.90
44117;DHT22;29781;49.480;8.512;2024-01-30T06:15:26;4.40;99.90
44117;DHT22;29781;49.480;8.512;2024-01-30T06:17:52;4.40;99.90
44117;DHT22;29781;49.480;8.512;2024-01-30T06:20:17;4.50;99.90
44117;DHT22;29781;49.480;8.512;2024-01-30T06:22:43;4.50;99.90
44117;DHT22;29781;49.480;8.512;2024-01-30T06:25:08;4.50;99.90
44117;DHT22;29781;49.480;8.512;2024-01-30T06:27:34;4.60;99.90
44117;DHT22;29781;49.480;8.512;2024-01-30T06:30:01;4.60;99.90
44117;DHT22;29781;49.480;8.512;2024-01-30T06:32:27;4.60;99.90
44117;DHT22;29781;49.480;8.512;2024-01-30T06:34:54;4.60;99.90
44117;DHT22;29781;49.480;8.512;2024-01-30T06:37:19;4.60;99.90
44117;DHT22;29781;49.480;8.512;2024-01-30T06:39:44;4.60;99.90
44117;DHT22;29781;49.480;8.512;2024-01-30T06:42:10;4.60;99.90
44117;DHT22;29781;49.480;8.512;2024-01-30T06:44:37;4.60;99.90
44117;DHT22;29781;49.480;8.512;2024-01-30T06:47:02;4.60;99.90
44117;DHT22;29781;49.480;8.512;2024-01-30T06:49:28;4.60;99.90
44117;DHT22;29781;49.480;8.512;2024-01-30T06:51:53;4.60;99.90
44117;DHT22;29781;49.480;8.512;2024-01-30T06:54:19;4.60;99.90
44117;DHT22;29781;49.480;8.512;2024-01-30T06:56:44;4.60;99.90
44117;DHT22;29781;49.480;8.512;2024-01-30T06:59:10;4.50;99.90
44117;DHT22;29781;49.480;8.512;2024-01-30T07:01:35;4.50;99.90
44117;DHT22;29781;49.480;8.512;2024-01-30T07:04:01;4.50;99.90
44117;DHT22;29781;49.480;8.512;2024-01-30T07:06:26;4.50;99.90
44117;DHT22;29781;49.480;8.512;2024-01-30T07:08:52;4.50;99.90
44117;DHT22;29781;49.480;8.512;2024-01-30T07:11:22;4.60;99.90
44117;DHT22;29781;49.480;8.512;2024-01-30T07:13:47;4.60;99.90
44117;DHT22;29781;49.480;8.512;2024-01-30T07:16:14;4.60;99.90
44117;DHT22;29781;49.480;8.512;2024-01-30T07:18:40;4.60;99.90
44117;DHT22;29781;49.480;8.512;2024-01-30T07:21:05;4.60;99.90
44117;DHT22;29781;49.480;8.512;2024-01-30T07:23:31;4.60;99.90
44117;DHT22;29781;49.480;8.512;2024-01-30T07:25:56;4.60;99.90
44117;DHT22;29781;49.480;8.512;2024-01-30T07:28:22;4.60;99.90
44117;DHT22;29781;49.480;8.512;2024-01-30T07:30:47;4.60;99.90
44117;DHT22;29781;49.480;8.512;2024-01-30T07:33:13;4.60;99.90
44117;DHT22;29781;49.480;8.512;2024-01-30T07:35:39;4.70;99.90
44117;DHT22;29781;49.480;8.512;2024-01-30T07:38:05;4.60;99.90
44117;DHT22;29781;49.480;8.512;2024-01-30T07:40:30;4.60;99.90
44117;DHT22;29781;49.480;8.512;2024-01-30T07:42:56;4.70;99.90
44117;DHT22;29781;49.480;8.512;2024-01-30T07:45:21;4.70;99.90
44117;DHT22;29781;49.480;8.512;2024-01-30T07:47:49;4.70;99.90
44117;DHT22;29781;49.480;8.512;2024-01-30T07:50:15;4.60;99.90
44117;DHT22;29781;49.480;8.512;2024-01-30T07:52:41;4.70;99.90
44117;DHT22;29781;49.480;8.512;2024-01-30T07:55:07;4.70;99.90
44117;DHT22;29781;49.480;8.512;2024-01-30T07:57:33;4.80;99.90
44117;DHT22;29781;49.480;8.512;2024-01-30T08:00:00;4.80;99.90
44117;DHT22;29781;49.480;8.512;2024-01-30T08:02:25;4.80;99.90
44117;DHT22;29781;49.480;8.512;2024-01-30T08:04:51;4.80;99.90
44117;DHT22;29781;49.480;8.512;2024-01-30T08:07:16;4.80;99.90
44117;DHT22;29781;49.480;8.512;2024-01-30T08:09:43;4.90;99.90
44117;DHT22;29781;49.480;8.512;2024-01-30T08:12:09;4.90;99.90
44117;DHT22;29781;49.480;8.512;2024-01-30T08:14:34;4.90;99.90
44117;DHT22;29781;49.480;8.512;2024-01-30T08:17:00;5.00;99.90
44117;DHT22;29781;49.480;8.512;2024-01-30T08:19:25;5.00;99.90
44117;DHT22;29781;49.480;8.512;2024-01-30T08:21:51;5.10;99.90
44117;DHT22;29781;49.480;8.512;2024-01-30T08:24:22;5.10;99.90
44117;DHT22;29781;49.480;8.512;2024-01-30T08:26:47;5.20;99.90
44117;DHT22;29781;49.480;8.512;2024-01-30T08:29:13;5.30;99.90
44117;DHT22;29781;49.480;8.512;2024-01-30T08:31:38;5.30;99.90
44117;DHT22;29781;49.480;8.512;2024-01-30T08:34:04;5.30;99.90
44117;DHT22;29781;49.480;8.512;2024-01-30T08:36:29;5.40;99.90
44117;DHT22;29781;49.480;8.512;2024-01-30T08:38:58;5.50;99.90
44117;DHT22;29781;49.480;8.512;2024-01-30T08:41:24;5.40;99.90
44117;DHT22;29781;49.480;8.512;2024-01-30T08:43:49;5.40;99.90
44117;DHT22;29781;49.480;8.512;2024-01-30T08:46:18;5.40;99.90
44117;DHT22;29781;49.480;8.512;2024-01-30T08:48:43;5.40;99.90
44117;DHT22;29781;49.480;8.512;2024-01-30T08:51:09;5.50;99.90
44117;DHT22;29781;49.480;8.512;2024-01-30T08:53:38;5.60;99.90
44117;DHT22;29781;49.480;8.512;2024-01-30T08:56:06;5.60;99.90
44117;DHT22;29781;49.480;8.512;2024-01-30T08:58:31;5.70;99.90
44117;DHT22;29781;49.480;8.512;2024-01-30T09:00:58;5.70;99.90
44117;DHT22;29781;49.480;8.512;2024-01-30T09:03:24;5.70;99.90
44117;DHT22;29781;49.480;8.512;2024-01-30T09:05:49;5.80;99.90
44117;DHT22;29781;49.480;8.512;2024-01-30T09:08:15;5.80;99.90
44117;DHT22;29781;49.480;8.512;2024-01-30T09:10:40;5.90;99.90
44117;DHT22;29781;49.480;8.512;2024-01-30T09:13:06;6.00;99.90
44117;DHT22;29781;49.480;8.512;2024-01-30T09:15:31;6.00;99.90
44117;DHT22;29781;49.480;8.512;2024-01-30T09:17:57;6.00;99.90
44117;DHT22;29781;49.480;8.512;2024-01-30T09:20:22;6.00;99.90
44117;DHT22;29781;49.480;8.512;2024-01-30T09:22:48;6.00;99.90
44117;DHT22;29781;49.480;8.512;2024-01-30T09:25:14;6.00;99.90
44117;DHT22;29781;49.480;8.512;2024-01-30T09:27:40;6.00;99.90
44117;DHT22;29781;49.480;8.512;2024-01-30T09:30:06;6.00;99.90
44117;DHT22;29781;49.480;8.512;2024-01-30T09:32:32;6.10;99.90
44117;DHT22;29781;49.480;8.512;2024-01-30T09:34:58;6.20;99.90
44117;DHT22;29781;49.480;8.512;2024-01-30T09:37:23;6.30;99.90
44117;DHT22;29781;49.480;8.512;2024-01-30T09:39:49;6.40;99.90
44117;DHT22;29781;49.480;8.512;2024-01-30T09:42:35;6.40;99.90
44117;DHT22;29781;49.480;8.512;2024-01-30T09:45:04;6.30;99.90
44117;DHT22;29781;49.480;8.512;2024-01-30T09:47:41;6.30;99.90
44117;DHT22;29781;49.480;8.512;2024-01-30T09:50:09;6.50;99.90
44117;DHT22;29781;49.480;8.512;2024-01-30T09:52:35;6.50;99.90
44117;DHT22;29781;49.480;8.512;2024-01-30T09:55:01;6.60;99.90
44117;DHT22;29781;49.480;8.512;2024-01-30T09:57:27;6.60;99.90
44117;DHT22;29781;49.480;8.512;2024-01-30T09:59:53;6.60;99.90
44117;DHT22;29781;49.480;8.512;2024-01-30T10:02:21;6.60;99.90
44117;DHT22;29781;49.480;8.512;2024-01-30T10:04:48;6.60;99.90
44117;DHT22;29781;49.480;8.512;2024-01-30T10:07:15;6.80;99.90
44117;DHT22;29781;49.480;8.512;2024-01-30T10:09:40;6.90;99.90
44117;DHT22;29781;49.480;8.512;2024-01-30T10:12:06;6.90;99.90
44117;DHT22;29781;49.480;8.512;2024-01-30T10:14:32;6.80;99.90
44117;DHT22;29781;49.480;8.512;2024-01-30T10:16:58;6.90;99.90
44117;DHT22;29781;49.480;8.512;2024-01-30T10:19:24;7.00;99.90
44117;DHT22;29781;49.480;8.512;2024-01-30T10:21:50;6.90;99.90
44117;DHT22;29781;49.480;8.512;2024-01-30T10:24:16;6.90;99.90
44117;DHT22;29781;49.480;8.512;2024-01-30T10:26:44;7.00;99.90
44117;DHT22;29781;49.480;8.512;2024-01-30T10:29:09;7.00;99.90
44117;DHT22;29781;49.480;8.512;2024-01-30T10:31:35;7.10;99.90
44117;DHT22;29781;49.480;8.512;2024-01-30T10:34:00;7.10;99.90
44117;DHT22;29781;49.480;8.512;2024-01-30T10:36:28;7.20;99.90
44117;DHT22;29781;49.480;8.512;2024-01-30T10:38:59;7.20;99.90
44117;DHT22;29781;49.480;8.512;2024-01-30T10:41:27;7.20;99.90
44117;DHT22;29781;49.480;8.512;2024-01-30T10:44:02;7.30;99.90
44117;DHT22;29781;49.480;8.512;2024-01-30T10:46:31;7.30;99.90
44117;DHT22;29781;49.480;8.512;2024-01-30T10:48:58;7.40;99.90
44117;DHT22;29781;49.480;8.512;2024-01-30T10:51:27;7.50;99.90
44117;DHT22;29781;49.480;8.512;2024-01-30T10:53:53;7.50;99.90
44117;DHT22;29781;49.480;8.512;2024-01-30T10:56:21;7.50;99.90
44117;DHT22;29781;49.480;8.512;2024-01-30T10:58:51;7.60;99.90
44117;DHT22;29781;49.480;8.512;2024-01-30T11:01:23;7.70;99.90
44117;DHT22;29781;49.480;8.512;2024-01-30T11:03:53;7.80;99.90
44117;DHT22;29781;49.480;8.512;2024-01-30T11:06:22;7.80;99.90
44117;DHT22;29781;49.480;8.512;2024-01-30T11:09:05;7.80;99.90
44117;DHT22;29781;49.480;8.512;2024-01-30T11:11:49;7.90;99.90
44117;DHT22;29781;49.480;8.512;2024-01-30T11:14:14;8.10;99.90
44117;DHT22;29781;49.480;8.512;2024-01-30T11:16:43;8.20;99.90
44117;DHT22;29781;49.480;8.512;2024-01-30T11:19:11;8.40;99.90
44117;DHT22;29781;49.480;8.512;2024-01-30T11:21:43;8.40;99.90
44117;DHT22;29781;49.480;8.512;2024-01-30T11:24:09;8.30;99.90
44117;DHT22;29781;49.480;8.512;2024-01-30T11:26:34;8.30;99.90
44117;DHT22;29781;49.480;8.512;2024-01-30T11:29:07;8.20;99.90
44117;DHT22;29781;49.480;8.512;2024-01-30T11:31:32;8.20;99.90
44117;DHT22;29781;49.480;8.512;2024-01-30T11:33:58;8.40;99.90
44117;DHT22;29781;49.480;8.512;2024-01-30T11:36:25;8.50;99.90
44117;DHT22;29781;49.480;8.512;2024-01-30T11:38:52;8.60;99.90
44117;DHT22;29781;49.480;8.512;2024-01-30T11:41:17;8.70;99.90
44117;DHT22;29781;49.480;8.512;2024-01-30T11:43:50;8.70;99.90
44117;DHT22;29781;49.480;8.512;2024-01-30T11:46:16;8.70;99.90
44117;DHT22;29781;49.480;8.512;2024-01-30T11:48:41;8.70;99.90
44117;DHT22;29781;49.480;8.512;2024-01-30T11:51:07;8.70;99.90
44117;DHT22;29781;49.480;8.512;2024-01-30T11:53:33;8.60;99.90
44117;DHT22;29781;49.480;8.512;2024-01-30T11:55:58;8.70;99.90
44117;DHT22;29781;49.480;8.512;2024-01-30T11:58:25;8.70;99.90
44117;DHT22;29781;49.480;8.512;2024-01-30T12:00:55;8.70;99.90
44117;DHT22;29781;49.480;8.512;2024-01-30T12:03:21;8.70;99.90
44117;DHT22;29781;49.480;8.512;2024-01-30T12:05:46;8.80;99.90
44117;DHT22;29781;49.480;8.512;2024-01-30T12:08:16;8.90;99.90
44117;DHT22;29781;49.480;8.512;2024-01-30T12:10:58;8.90;99.90
44117;DHT22;29781;49.480;8.512;2024-01-30T12:13:25;8.90;99.90
44117;DHT22;29781;49.480;8.512;2024-01-30T12:15:51;9.00;99.90
44117;DHT22;29781;49.480;8.512;2024-01-30T12:18:19;9.00;99.90
44117;DHT22;29781;49.480;8.512;2024-01-30T12:20:45;9.10;99.90
44117;DHT22;29781;49.480;8.512;2024-01-30T12:23:12;9.20;99.90
44117;DHT22;29781;49.480;8.512;2024-01-30T12:25:39;9.20;99.90
44117;DHT22;29781;49.480;8.512;2024-01-30T12:28:05;9.20;99.90
44117;DHT22;29781;49.480;8.512;2024-01-30T12:30:31;9.20;99.90
44117;DHT22;29781;49.480;8.512;2024-01-30T12:32:57;9.30;99.90
44117;DHT22;29781;49.480;8.512;2024-01-30T12:35:23;9.30;99.90
44117;DHT22;29781;49.480;8.512;2024-01-30T12:37:49;9.40;99.90
44117;DHT22;29781;49.480;8.512;2024-01-30T12:40:16;9.40;99.90
44117;DHT22;29781;49.480;8.512;2024-01-30T12:42:43;9.50;99.90
44117;DHT22;29781;49.480;8.512;2024-01-30T12:45:09;9.60;99.90
44117;DHT22;29781;49.480;8.512;2024-01-30T12:47:35;9.70;99.90
44117;DHT22;29781;49.480;8.512;2024-01-30T12:50:00;9.80;99.90
44117;DHT22;29781;49.480;8.512;2024-01-30T12:52:26;9.80;99.90
44117;DHT22;29781;49.480;8.512;2024-01-30T12:54:52;9.80;99.90
44117;DHT22;29781;49.480;8.512;2024-01-30T12:57:18;9.80;99.90
44117;DHT22;29781;49.480;8.512;2024-01-30T12:59:44;9.80;99.90
44117;DHT22;29781;49.480;8.512;2024-01-30T13:02:11;9.90;99.90
44117;DHT22;29781;49.480;8.512;2024-01-30T13:04:37;10.10;99.90
44117;DHT22;29781;49.480;8.512;2024-01-30T13:07:03;10.10;99.90
44117;DHT22;29781;49.480;8.512;2024-01-30T13:09:30;10.10;99.90
44117;DHT22;29781;49.480;8.512;2024-01-30T13:11:57;10.20;99.90
44117;DHT22;29781;49.480;8.512;2024-01-30T13:14:22;10.30;99.90
44117;DHT22;29781;49.480;8.512;2024-01-30T13:16:48;10.20;99.90
44117;DHT22;29781;49.480;8.512;2024-01-30T13:19:13;10.20;99.90
44117;DHT22;29781;49.480;8.512;2024-01-30T13:21:39;10.20;99.90
44117;DHT22;29781;49.480;8.512;2024-01-30T13:24:13;10.20;99.90
44117;DHT22;29781;49.480;8.512;2024-01-30T13:26:39;10.20;99.90
44117;DHT22;29781;49.480;8.512;2024-01-30T13:29:05;10.20;99.90
44117;DHT22;29781;49.480;8.512;2024-01-30T13:31:30;10.30;99.90
44117;DHT22;29781;49.480;8.512;2024-01-30T13:33:56;10.30;99.90
44117;DHT22;29781;49.480;8.512;2024-01-30T13:36:22;10.30;99.90
44117;DHT22;29781;49.480;8.512;2024-01-30T13:38:48;10.30;99.90
44117;DHT22;29781;49.480;8.512;2024-01-30T13:41:13;10.30;99.90
44117;DHT22;29781;49.480;8.512;2024-01-30T13:43:39;10.30;99.90
44117;DHT22;29781;49.480;8.512;2024-01-30T13:46:04;10.30;99.90
44117;DHT22;29781;49.480;8.512;2024-01-30T13:48:31;10.40;99.90
44117;DHT22;29781;49.480;8.512;2024-01-30T13:51:06;10.30;99.90
44117;DHT22;29781;49.480;8.512;2024-01-30T13:53:31;10.40;99.90
44117;DHT22;29781;49.480;8.512;2024-01-30T13:55:57;10.40;99.90
44117;DHT22;29781;49.480;8.512;2024-01-30T13:58:22;10.40;99.90
44117;DHT22;29781;49.480;8.512;2024-01-30T14:00:48;10.40;99.90
44117;DHT22;29781;49.480;8.512;2024-01-30T14:03:14;10.40;99.90
44117;DHT22;29781;49.480;8.512;2024-01-30T14:05:40;10.50;99.90
44117;DHT22;29781;49.480;8.512;2024-01-30T14:08:06;10.40;99.90
44117;DHT22;29781;49.480;8.512;2024-01-30T14:10:32;10.40;99.90
44117;DHT22;29781;49.480;8.512;2024-01-30T14:12:58;10.40;99.90
44117;DHT22;29781;49.480;8.512;2024-01-30T14:15:23;10.40;99.90
44117;DHT22;29781;49.480;8.512;2024-01-30T14:17:49;10.40;99.90
44117;DHT22;29781;49.480;8.512;2024-01-30T14:20:15;10.40;99.90
44117;DHT22;29781;49.480;8.512;2024-01-30T14:22:44;10.40;99.90
44117;DHT22;29781;49.480;8.512;2024-01-30T14:25:09;10.40;99.90
44117;DHT22;29781;49.480;8.512;2024-01-30T14:27:36;10.40;99.90
44117;DHT22;29781;49.480;8.512;2024-01-30T14:30:02;10.40;99.90
44117;DHT22;29781;49.480;8.512;2024-01-30T14:32:28;10.40;99.90
44117;DHT22;29781;49.480;8.512;2024-01-30T14:35:01;10.40;99.90
44117;DHT22;29781;49.480;8.512;2024-01-30T14:37:26;10.40;99.90
44117;DHT22;29781;49.480;8.512;2024-01-30T14:39:54;10.30;99.90
44117;DHT22;29781;49.480;8.512;2024-01-30T14:42:20;10.30;99.90
44117;DHT22;29781;49.480;8.512;2024-01-30T14:44:45;10.30;99.90
44117;DHT22;29781;49.480;8.512;2024-01-30T14:47:11;10.20;99.90
44117;DHT22;29781;49.480;8.512;2024-01-30T14:49:38;10.30;99.90
44117;DHT22;29781;49.480;8.512;2024-01-30T14:52:04;10.30;99.90
44117;DHT22;29781;49.480;8.512;2024-01-30T14:54:29;10.30;99.90
44117;DHT22;29781;49.480;8.512;2024-01-30T14:56:55;10.30;99.90
44117;DHT22;29781;49.480;8.512;2024-01-30T14:59:21;10.30;99.90
44117;DHT22;29781;49.480;8.512;2024-01-30T15:01:47;10.40;99.90
44117;DHT22;29781;49.480;8.512;2024-01-30T15:04:13;10.40;99.90
44117;DHT22;29781;49.480;8.512;2024-01-30T15:06:39;10.50;99.90
44117;DHT22;29781;49.480;8.512;2024-01-30T15:09:19;10.40;99.90
44117;DHT22;29781;49.480;8.512;2024-01-30T15:11:47;10.40;99.90
44117;DHT22;29781;49.480;8.512;2024-01-30T15:14:14;10.40;99.90
44117;DHT22;29781;49.480;8.512;2024-01-30T15:16:39;10.40;99.90
44117;DHT22;29781;49.480;8.512;2024-01-30T15:19:05;10.30;99.90
44117;DHT22;29781;49.480;8.512;2024-01-30T15:21:31;10.30;99.90
44117;DHT22;29781;49.480;8.512;2024-01-30T15:23:57;10.40;99.90
44117;DHT22;29781;49.480;8.512;2024-01-30T15:26:22;10.30;99.90
44117;DHT22;29781;49.480;8.512;2024-01-30T15:28:48;10.30;99.90
44117;DHT22;29781;49.480;8.512;2024-01-30T15:31:14;10.30;99.90
44117;DHT22;29781;49.480;8.512;2024-01-30T15:33:39;10.20;99.90
44117;DHT22;29781;49.480;8.512;2024-01-30T15:36:05;10.20;99.90